^^
Datos históricos de la estación: Murcia-Puente Tocinos
Diario Informe para Abril 12, 2021 Unidades:  Métrico    Ingés   Ambas
Diario Semanal Mensual Anual
  Máxima: Mínima: Promedio:
Temperatura: 13.2 °C 3.9 °C 7.8 °C
Punto de rocio: 0.9 °C -5 °C -1.7 °C
Humedad: 73% 29.3% 54%
Velocidad viento: 17.2km/h 5.8km/h 10.1km/h
Racha viento: 29.6km/h - -
Viento- - SSO
Presión: 1028.2 hPa 1024.4 hPa -
Precipitación: 0.0 mm    
 
 
Tabla de datos para Abril 12, 2021
Hora Temperatura Punto de rocio Presión Viento Velocidad viento Racha viento Humedad Intensidad lluvia(por hora) Nubes
00:04 6.2 °C 0.9 °C 1024.4 hPa SSO 6.9 km/h 16.1 km/h 69% 0.0 mm
00:09 6.2 °C 0.9 °C 1024.5 hPa SSO 8.2 km/h 13.7 km/h 68.8% 0.0 mm
00:14 6.1 °C 0.6 °C 1024.5 hPa SSO 8.4 km/h 16.7 km/h 68% 0.0 mm
00:19 6.1 °C 0.6 °C 1024.5 hPa SSO 8.6 km/h 16.1 km/h 68% 0.0 mm
00:24 6 °C 0.6 °C 1024.7 hPa SSO 8.7 km/h 14 km/h 68% 0.0 mm
00:29 5.9 °C 0.5 °C 1024.7 hPa SSO 8.4 km/h 14.8 km/h 68% 0.0 mm
00:34 5.9 °C 0.4 °C 1024.7 hPa SSO 8.4 km/h 12.9 km/h 68% 0.0 mm
00:39 5.9 °C 0.4 °C 1024.8 hPa SSO 7.7 km/h 13 km/h 68% 0.0 mm
00:44 5.8 °C 0.3 °C 1024.8 hPa SSO 7.6 km/h 12.9 km/h 68% 0.0 mm
00:49 5.8 °C 0.3 °C 1024.8 hPa SSO 7 km/h 13 km/h 68% 0.0 mm
00:54 5.7 °C 0.3 °C 1024.8 hPa Sur 6.9 km/h 12.9 km/h 68% 0.0 mm
00:59 5.7 °C 0.2 °C 1024.7 hPa Sur 7.5 km/h 11.3 km/h 68% 0.0 mm
01:04 5.6 °C 0.2 °C 1024.7 hPa SSO 7.6 km/h 11.3 km/h 68.2% 0.0 mm
01:09 5.6 °C 0.2 °C 1024.9 hPa Sur 7 km/h 11.1 km/h 68.3% 0.0 mm
01:14 5.5 °C 0.2 °C 1024.9 hPa Sur 6.9 km/h 11.3 km/h 68.8% 0.0 mm
01:19 5.4 °C 0.2 °C 1024.9 hPa SSO 6.5 km/h 11.3 km/h 69% 0.0 mm
01:24 5.3 °C 0.1 °C 1024.9 hPa SSO 6.5 km/h 10 km/h 69% 0.0 mm
01:29 5.3 °C 0 °C 1024.9 hPa SSO 5.9 km/h 9.7 km/h 68.8% 0.0 mm
01:34 5.3 °C 0 °C 1024.9 hPa SSO 5.8 km/h 10 km/h 69% 0.0 mm
01:39 5.2 °C -0.1 °C 1025.0 hPa SSO 6.3 km/h 10.3 km/h 69% 0.0 mm
01:44 5.2 °C -0.1 °C 1025.0 hPa SSO 6.5 km/h 11.3 km/h 69% 0.0 mm
01:49 5.2 °C -0.1 °C 1025.0 hPa SSO 6.9 km/h 11.3 km/h 69% 0.0 mm
01:54 5.1 °C -0.1 °C 1025.2 hPa SO 6.9 km/h 11.3 km/h 69% 0.0 mm
01:59 5.1 °C -0.1 °C 1025.2 hPa SO 5.9 km/h 8 km/h 69% 0.0 mm
02:04 5.1 °C -0.1 °C 1025.2 hPa Sur 5.8 km/h 9.3 km/h 69% 0.0 mm
02:09 5.1 °C -0.1 °C 1025.2 hPa Sur 5.8 km/h 9.7 km/h 69% 0.0 mm
02:14 5.1 °C -0.1 °C 1025.2 hPa SSO 5.8 km/h 10.3 km/h 69% 0.0 mm
02:19 4.9 °C -0.3 °C 1025.2 hPa SSO 6.8 km/h 13 km/h 69% 0.0 mm
02:24 4.9 °C -0.3 °C 1025.3 hPa Sur 6.9 km/h 12.9 km/h 69% 0.0 mm
02:29 4.9 °C -0.3 °C 1025.3 hPa Sur 7.5 km/h 11.3 km/h 69% 0.0 mm
02:34 4.9 °C -0.3 °C 1025.3 hPa SSO 7.6 km/h 13.7 km/h 69% 0.0 mm
02:39 4.9 °C -0.3 °C 1025.3 hPa SSO 7 km/h 14.5 km/h 69% 0.0 mm
02:44 4.9 °C -0.4 °C 1025.3 hPa SSO 6.9 km/h 13 km/h 68.8% 0.0 mm
02:49 4.9 °C -0.5 °C 1025.3 hPa SSO 8.2 km/h 13 km/h 68% 0.0 mm
02:54 4.9 °C -0.5 °C 1025.4 hPa SSO 8.4 km/h 14.8 km/h 68% 0.0 mm
02:59 5 °C -0.6 °C 1025.4 hPa SSO 8.4 km/h 14.8 km/h 67.2% 0.0 mm
03:04 5.1 °C -0.6 °C 1025.4 hPa SSO 8.4 km/h 18.5 km/h 67% 0.0 mm
03:09 5.1 °C -0.6 °C 1025.5 hPa SSO 9.3 km/h 19.3 km/h 67% 0.0 mm
03:14 5 °C -0.6 °C 1025.5 hPa SSO 9.5 km/h 17.2 km/h 67% 0.0 mm
03:19 4.9 °C -0.5 °C 1025.5 hPa SSO 9.9 km/h 17.7 km/h 68% 0.0 mm
03:24 4.8 °C -0.6 °C 1025.6 hPa SSO 10 km/h 14.5 km/h 68% 0.0 mm
03:29 4.8 °C -0.5 °C 1025.6 hPa SO 8.5 km/h 14.8 km/h 68.3% 0.0 mm
03:34 4.8 °C -0.6 °C 1025.6 hPa SSO 8.4 km/h 15.6 km/h 68.3% 0.0 mm
03:39 4.8 °C -0.6 °C 1025.6 hPa SSO 9.3 km/h 16.7 km/h 68.2% 0.0 mm
03:44 4.7 °C -0.5 °C 1025.6 hPa SSO 9.5 km/h 16.7 km/h 69% 0.0 mm
03:49 4.6 °C -0.6 °C 1025.6 hPa SSO 10.2 km/h 16.7 km/h 69% 0.0 mm
03:54 4.6 °C -0.6 °C 1025.6 hPa SSO 10.3 km/h 16.1 km/h 69% 0.0 mm
03:59 4.6 °C -0.6 °C 1025.6 hPa SSO 9.6 km/h 18.5 km/h 69% 0.0 mm
04:04 4.6 °C -0.6 °C 1025.6 hPa SSO 9.5 km/h 19.3 km/h 69% 0.0 mm
04:09 4.7 °C -0.7 °C 1025.6 hPa SSO 9.9 km/h 19.8 km/h 68.3% 0.0 mm
04:14 4.7 °C -0.7 °C 1025.5 hPa SSO 10 km/h 20.9 km/h 68% 0.0 mm
04:19 4.7 °C -0.7 °C 1025.5 hPa SSO 10.3 km/h 20.9 km/h 68% 0.0 mm
04:24 4.6 °C -0.6 °C 1025.5 hPa Sur 10.3 km/h 18.5 km/h 68.9% 0.0 mm
04:29 4.5 °C -0.7 °C 1025.4 hPa SSO 10 km/h 19.3 km/h 69% 0.0 mm
04:34 4.4 °C -0.8 °C 1025.4 hPa SSO 10 km/h 16.1 km/h 69% 0.0 mm
04:39 4.4 °C -0.8 °C 1025.4 hPa SSO 9.6 km/h 14.8 km/h 69% 0.0 mm
04:44 4.5 °C -0.7 °C 1025.3 hPa SSO 9.5 km/h 20.1 km/h 69% 0.0 mm
04:49 4.6 °C -0.7 °C 1025.3 hPa SSO 9.9 km/h 20.9 km/h 69% 0.0 mm
04:54 4.6 °C -0.7 °C 1025.3 hPa SSO 10 km/h 18.5 km/h 68.5% 0.0 mm
04:59 4.7 °C -0.7 °C 1025.2 hPa SSO 10.2 km/h 19.3 km/h 68% 0.0 mm
05:04 4.7 °C -0.7 °C 1025.2 hPa SSO 10.3 km/h 19.3 km/h 68% 0.0 mm
05:09 4.7 °C -0.7 °C 1025.2 hPa SSO 10.3 km/h 19.3 km/h 68% 0.0 mm
05:14 4.7 °C -0.7 °C 1025.2 hPa SSO 10.3 km/h 19.3 km/h 68% 0.0 mm
05:19 4.6 °C -0.7 °C 1025.2 hPa SSO 11 km/h 16.7 km/h 68.5% 0.0 mm
05:24 4.6 °C -0.7 °C 1025.2 hPa SSO 11.1 km/h 18.5 km/h 68.8% 0.0 mm
05:29 4.7 °C -0.7 °C 1025.1 hPa SSO 10.4 km/h 19.3 km/h 68% 0.0 mm
05:34 4.7 °C -0.7 °C 1025.1 hPa SSO 10.3 km/h 16.4 km/h 68% 0.0 mm
05:39 4.6 °C -0.6 °C 1025.2 hPa SSO 10 km/h 17.2 km/h 68.8% 0.0 mm
05:44 4.6 °C -0.6 °C 1025.2 hPa SSO 10 km/h 18.5 km/h 69% 0.0 mm
05:49 4.6 °C -0.6 °C 1025.2 hPa SSO 10.9 km/h 19.3 km/h 69% 0.0 mm
05:54 4.5 °C -0.7 °C 1025.2 hPa SSO 11.1 km/h 19 km/h 69% 0.0 mm
05:59 4.4 °C -0.7 °C 1025.2 hPa SSO 11.1 km/h 19.3 km/h 69.6% 0.0 mm
06:04 4.3 °C -0.6 °C 1025.2 hPa SSO 11.1 km/h 19.3 km/h 70% 0.0 mm
06:09 4.3 °C -0.7 °C 1025.3 hPa Sur 11.8 km/h 19.8 km/h 70% 0.0 mm
06:14 4.3 °C -0.7 °C 1025.3 hPa SSO 11.9 km/h 20.9 km/h 70% 0.0 mm
06:19 4.3 °C -0.6 °C 1025.3 hPa SSO 12.2 km/h 22.2 km/h 70.4% 0.0 mm
06:24 4.2 °C -0.6 °C 1025.4 hPa SSO 12.2 km/h 25.9 km/h 71% 0.0 mm
06:29 4.2 °C -0.6 °C 1025.4 hPa SSO 12.2 km/h 26.2 km/h 71% 0.0 mm
06:34 4.2 °C -0.6 °C 1025.4 hPa SSO 12.2 km/h 25.9 km/h 71% 0.0 mm
06:39 4.2 °C -0.4 °C 1025.6 hPa SSO 14.5 km/h 25.7 km/h 72% 0.0 mm
06:44 4.2 °C -0.5 °C 1025.6 hPa SSO 14.8 km/h 19.3 km/h 72% 0.0 mm
06:49 4.1 °C -0.5 °C 1025.6 hPa SSO 12.3 km/h 22.2 km/h 72% 0.0 mm
06:54 4.1 °C -0.5 °C 1025.8 hPa SSO 11.9 km/h 22.5 km/h 72% 0.0 mm
06:59 4.1 °C -0.5 °C 1025.8 hPa SSO 12.2 km/h 20.4 km/h 72% 0.0 mm
07:04 4.1 °C -0.5 °C 1025.8 hPa SSO 12.2 km/h 20.9 km/h 72% 0.0 mm
07:09 4 °C -0.4 °C 1026.0 hPa SSO 12 km/h 20.4 km/h 72.8% 0.0 mm
07:14 4 °C -0.4 °C 1026.0 hPa SSO 11.9 km/h 20.9 km/h 73% 0.0 mm
07:19 3.9 °C -0.5 °C 1026.0 hPa SSO 11.2 km/h 20.9 km/h 73% 0.0 mm
07:24 3.9 °C -0.5 °C 1026.1 hPa SSO 11.1 km/h 22.2 km/h 73% 0.0 mm
07:29 3.9 °C -0.5 °C 1026.1 hPa Sur 12.1 km/h 22.5 km/h 73% 0.0 mm
07:34 3.9 °C -0.5 °C 1026.1 hPa SSO 12.2 km/h 20.4 km/h 73% 0.0 mm
07:39 4 °C -0.4 °C 1026.4 hPa SSO 12 km/h 20.9 km/h 73% 0.0 mm
07:44 4 °C -0.4 °C 1026.4 hPa SSO 11.9 km/h 20.9 km/h 73% 0.0 mm
07:49 4 °C -0.4 °C 1026.4 hPa SSO 12.2 km/h 18.5 km/h 73% 0.0 mm
07:54 4.1 °C -0.3 °C 1026.4 hPa SSO 12.2 km/h 19.3 km/h 73% 0.0 mm
07:59 4.1 °C -0.3 °C 1026.4 hPa SSO 10.5 km/h 19.3 km/h 73% 0.0 mm
08:04 4.2 °C -0.2 °C 1026.4 hPa SSO 10.3 km/h 20.4 km/h 73% 0.0 mm
08:09 4.3 °C -0.3 °C 1026.4 hPa SSO 11.7 km/h 20.9 km/h 72.1% 0.0 mm
08:14 4.3 °C -0.3 °C 1026.4 hPa SSO 11.9 km/h 19.3 km/h 72% 0.0 mm
08:19 4.3 °C -0.3 °C 1026.4 hPa SSO 10.5 km/h 22.2 km/h 72% 0.0 mm
08:24 4.3 °C -0.3 °C 1026.6 hPa SSO 10.3 km/h 22.5 km/h 72% 0.0 mm
08:29 4.3 °C -0.2 °C 1026.6 hPa SO 11 km/h 17.7 km/h 72.7% 0.0 mm
08:34 4.3 °C -0.1 °C 1026.6 hPa SO 11.1 km/h 16.1 km/h 72.9% 0.0 mm
08:39 4.3 °C -0.1 °C 1026.7 hPa SO 9.7 km/h 18.5 km/h 72.9% 0.0 mm
08:44 4.3 °C -0.3 °C 1026.7 hPa SO 9.5 km/h 19.3 km/h 72.1% 0.0 mm
08:49 4.3 °C -0.3 °C 1026.7 hPa SSO 10.2 km/h 18.5 km/h 72% 0.0 mm
08:54 4.4 °C -0.3 °C 1026.7 hPa SSO 10.3 km/h 19.3 km/h 72% 0.0 mm
08:59 4.4 °C -0.2 °C 1026.7 hPa SSO 10.3 km/h 19.3 km/h 72% 0.0 mm
09:04 4.4 °C -0.2 °C 1026.7 hPa SSO 10.3 km/h 20.9 km/h 72% 0.0 mm
09:09 4.3 °C -0.3 °C 1026.9 hPa SSO 12 km/h 22.2 km/h 72% 0.0 mm
09:14 4.3 °C -0.3 °C 1026.9 hPa SSO 12.2 km/h 24.5 km/h 72% 0.0 mm
09:19 4.4 °C -0.4 °C 1026.9 hPa SSO 14.5 km/h 24.1 km/h 71.2% 0.0 mm
09:24 4.5 °C -0.3 °C 1027.0 hPa Sur 14.8 km/h 22.5 km/h 71% 0.0 mm
09:29 4.6 °C -0.3 °C 1027.0 hPa SSO 12.6 km/h 20.9 km/h 70.2% 0.0 mm
09:34 4.7 °C -0.3 °C 1027.0 hPa Sur 12.2 km/h 21.7 km/h 70% 0.0 mm
09:39 4.8 °C -0.3 °C 1027.3 hPa SSO 12.9 km/h 20.9 km/h 69.5% 0.0 mm
09:44 4.9 °C -0.4 °C 1027.3 hPa SSO 13 km/h 20.9 km/h 68.5% 0.0 mm
09:49 5.1 °C -0.3 °C 1027.3 hPa SSO 11.3 km/h 20.9 km/h 68% 0.0 mm
09:54 5.2 °C -0.2 °C 1027.4 hPa SSO 11.1 km/h 18.3 km/h 68% 0.0 mm
09:59 5.3 °C -0.1 °C 1027.4 hPa SSO 11.1 km/h 19.3 km/h 68% 0.0 mm
10:04 5.4 °C -0.1 °C 1027.4 hPa SSO 11.1 km/h 19.3 km/h 67.8% 0.0 mm
10:09 5.6 °C -0.1 °C 1027.6 hPa SSO 11.1 km/h 20.9 km/h 67% 0.0 mm
10:14 5.8 °C -0.2 °C 1027.6 hPa SSO 11.1 km/h 22.2 km/h 65.4% 0.0 mm
10:19 6 °C -0.2 °C 1027.6 hPa Sur 12.8 km/h 22.5 km/h 64.6% 0.0 mm
10:24 6.2 °C -0.2 °C 1027.9 hPa SSO 13 km/h 20.9 km/h 63.9% 0.0 mm
10:29 6.3 °C -0.3 °C 1027.9 hPa SSO 10.4 km/h 20.4 km/h 62.6% 0.0 mm
10:34 6.4 °C -0.4 °C 1027.9 hPa SSO 10 km/h 20.9 km/h 61.3% 0.0 mm
10:39 6.7 °C -0.5 °C 1027.9 hPa SSO 10.9 km/h 20.9 km/h 60.3% 0.0 mm
10:44 6.7 °C -0.5 °C 1027.9 hPa SSO 11.1 km/h 20.9 km/h 60% 0.0 mm
10:49 6.8 °C -0.5 °C 1027.9 hPa SSO 12.8 km/h 20.9 km/h 59.9% 0.0 mm
10:54 6.9 °C -0.6 °C 1028.2 hPa SSO 13 km/h 19.3 km/h 58.7% 0.0 mm
10:59 7.2 °C -0.7 °C 1028.2 hPa SSO 10.6 km/h 20.9 km/h 57.5% 0.0 mm
11:04 7.3 °C -0.6 °C 1028.2 hPa SSO 10.3 km/h 20.9 km/h 57% 0.0 mm
11:09 7.6 °C -0.6 °C 1028.2 hPa SSO 9.6 km/h 19.3 km/h 56.1% 0.0 mm
11:14 7.7 °C -0.9 °C 1028.2 hPa SSO 9.5 km/h 19.3 km/h 54.6% 0.0 mm
11:19 7.8 °C -1.2 °C 1028.2 hPa SSO 9.9 km/h 20.4 km/h 52.9% 0.0 mm
11:24 7.9 °C -1.2 °C 1028.2 hPa SO 10 km/h 20.9 km/h 52.8% 0.0 mm
11:29 8.1 °C -0.9 °C 1028.2 hPa SO 10.9 km/h 14.8 km/h 53.2% 0.0 mm
11:34 8.2 °C -1.1 °C 1028.2 hPa SSO 11.1 km/h 16.1 km/h 52.3% 0.0 mm
11:39 8.3 °C -0.8 °C 1028.2 hPa SO 9.7 km/h 18.5 km/h 52.5% 0.0 mm
11:44 8.4 °C -1.1 °C 1028.1 hPa SO 9.5 km/h 19.3 km/h 51.1% 0.0 mm
11:49 8.5 °C -1.2 °C 1028.1 hPa SO 8.5 km/h 16.7 km/h 50.6% 0.0 mm
11:54 8.6 °C -1 °C 1028.1 hPa SSO 8.4 km/h 20.1 km/h 51% 0.0 mm
11:59 8.7 °C -1.1 °C 1028.1 hPa SSO 9.7 km/h 20.9 km/h 50% 0.0 mm
12:04 8.9 °C -1.1 °C 1028.1 hPa SSO 10 km/h 20.9 km/h 49.8% 0.0 mm
12:09 8.9 °C -1.3 °C 1028.1 hPa SSO 10.3 km/h 16.7 km/h 49% 0.0 mm
12:14 9 °C -1.3 °C 1027.9 hPa SSO 10.3 km/h 16.7 km/h 48.5% 0.0 mm
12:19 9.2 °C -1.2 °C 1027.9 hPa SSO 10.3 km/h 16.7 km/h 48.3% 0.0 mm
12:24 9.3 °C -1.1 °C 1027.9 hPa SSO 10.3 km/h 18.5 km/h 48% 0.0 mm
12:29 9.4 °C -1.2 °C 1027.7 hPa SO 10 km/h 22.2 km/h 47.5% 0.0 mm
12:34 9.3 °C -1.7 °C 1027.7 hPa SO 10 km/h 22.5 km/h 46% 0.0 mm
12:39 9.4 °C -1.9 °C 1027.7 hPa SO 13.5 km/h 23.7 km/h 45% 0.0 mm
12:44 9.6 °C -2 °C 1027.5 hPa SO 14 km/h 24.1 km/h 44.1% 0.0 mm
12:49 9.7 °C -2.1 °C 1027.5 hPa SO 13.7 km/h 25.9 km/h 43.6% 0.0 mm
12:54 9.8 °C -1.9 °C 1027.5 hPa SO 13.7 km/h 25.7 km/h 43.7% 0.0 mm
12:59 10.1 °C -2.1 °C 1027.0 hPa SO 13.1 km/h 24.5 km/h 42.8% 0.0 mm
13:04 10.2 °C -1.9 °C 1027.0 hPa SO 13 km/h 24.1 km/h 42.7% 0.0 mm
13:09 10.3 °C -2.4 °C 1027.0 hPa SO 12.3 km/h 29.6 km/h 40.9% 0.0 mm
13:14 10.3 °C -2.5 °C 1026.8 hPa SO 12.2 km/h 29 km/h 40.7% 0.0 mm
13:19 10.2 °C -2.3 °C 1026.8 hPa SO 16.5 km/h 23.3 km/h 41.6% 0.0 mm
13:24 10.4 °C -2 °C 1026.8 hPa OSO 17.2 km/h 24.1 km/h 42.1% 0.0 mm
13:29 10.6 °C -1.8 °C 1026.7 hPa SO 12.7 km/h 24.1 km/h 41.9% 0.0 mm
13:34 10.7 °C -2 °C 1026.7 hPa OSO 11.9 km/h 22.5 km/h 41.1% 0.0 mm
13:39 10.8 °C -2.3 °C 1026.7 hPa SO 12.2 km/h 22.5 km/h 40% 0.0 mm
13:44 10.9 °C -2.6 °C 1026.5 hPa SO 12.2 km/h 22.2 km/h 38.8% 0.0 mm
13:49 11.1 °C -2.5 °C 1026.5 hPa OSO 12.9 km/h 22.5 km/h 38.6% 0.0 mm
13:54 11.2 °C -2.4 °C 1026.5 hPa SO 13 km/h 22.5 km/h 38.5% 0.0 mm
13:59 11.3 °C -2.9 °C 1026.2 hPa SO 13 km/h 24.5 km/h 37% 0.0 mm
14:04 11.4 °C -2.9 °C 1026.2 hPa SO 13 km/h 27.8 km/h 36.9% 0.0 mm
14:09 11.4 °C -2.9 °C 1026.2 hPa OSO 14.5 km/h 27.4 km/h 36.7% 0.0 mm
14:14 11.5 °C -2.6 °C 1026.2 hPa OSO 14.8 km/h 24.1 km/h 37.3% 0.0 mm
14:19 11.6 °C -2.3 °C 1026.2 hPa SSO 12.2 km/h 20.9 km/h 38% 0.0 mm
14:24 11.7 °C -2.2 °C 1026.2 hPa SO 11.9 km/h 17.7 km/h 38% 0.0 mm
14:29 11.8 °C -1.9 °C 1025.9 hPa SO 9.1 km/h 16.1 km/h 38.6% 0.0 mm
14:34 11.9 °C -1.9 °C 1025.9 hPa SSO 8.7 km/h 20.9 km/h 38.2% 0.0 mm
14:39 11.9 °C -1.9 °C 1025.9 hPa SSO 10.1 km/h 20.9 km/h 38.1% 0.0 mm
14:44 12.1 °C -1.8 °C 1025.8 hPa SO 10.3 km/h 18 km/h 38.2% 0.0 mm
14:49 12.2 °C -1.9 °C 1025.8 hPa SO 8.9 km/h 19.3 km/h 37.4% 0.0 mm
14:54 12.3 °C -2.1 °C 1025.8 hPa SO 8.7 km/h 17.7 km/h 36.8% 0.0 mm
14:59 12.4 °C -2.5 °C 1025.6 hPa SO 9.8 km/h 20.9 km/h 35.4% 0.0 mm
15:04 12.3 °C -2.8 °C 1025.6 hPa SO 10 km/h 20.9 km/h 34.7% 0.0 mm
15:09 12.4 °C -2.3 °C 1025.6 hPa SO 11.7 km/h 16.1 km/h 36% 0.0 mm
15:14 12.5 °C -2.1 °C 1025.6 hPa SO 11.9 km/h 16.7 km/h 36% 0.0 mm
15:19 12.7 °C -2.4 °C 1025.6 hPa OSO 8.7 km/h 18.5 km/h 34.9% 0.0 mm
15:24 12.8 °C -2.4 °C 1025.6 hPa OSO 8.4 km/h 14.8 km/h 34.9% 0.0 mm
15:29 12.9 °C -2.8 °C 1025.6 hPa SO 7.7 km/h 22 km/h 33.7% 0.0 mm
15:34 12.9 °C -3 °C 1025.6 hPa OSO 7.6 km/h 22.5 km/h 33% 0.0 mm
15:39 13 °C -3.3 °C 1025.6 hPa SO 9.6 km/h 24.5 km/h 32.2% 0.0 mm
15:44 13.1 °C -3.2 °C 1025.4 hPa SO 10 km/h 24.1 km/h 32.2% 0.0 mm
15:49 13 °C -3.4 °C 1025.4 hPa SO 13.6 km/h 22.5 km/h 31.9% 0.0 mm
15:54 13.1 °C -4.1 °C 1025.5 hPa SO 14 km/h 22.5 km/h 30.1% 0.0 mm
15:59 13.1 °C -3.7 °C 1025.5 hPa OSO 11.5 km/h 20.9 km/h 30.9% 0.0 mm
16:04 13.1 °C -4 °C 1025.5 hPa OSO 11.1 km/h 20.9 km/h 30.1% 0.0 mm
16:09 13.1 °C -4.2 °C 1025.6 hPa OSO 12.8 km/h 22.2 km/h 29.9% 0.0 mm
16:14 13.1 °C -4.3 °C 1025.6 hPa OSO 13 km/h 22.5 km/h 29.5% 0.0 mm
16:19 13.1 °C -4.2 °C 1025.6 hPa OSO 13 km/h 22.2 km/h 29.7% 0.0 mm
16:24 13.1 °C -4.4 °C 1025.7 hPa OSO 13 km/h 22.5 km/h 29.3% 0.0 mm
16:29 13.2 °C -4.2 °C 1025.7 hPa OSO 12.1 km/h 22.5 km/h 29.6% 0.0 mm
16:34 13.2 °C -4.2 °C 1025.7 hPa OSO 11.9 km/h 20.9 km/h 29.7% 0.0 mm
16:39 13.1 °C -4 °C 1025.8 hPa OSO 11.9 km/h 20.9 km/h 30.2% 0.0 mm
16:44 13.1 °C -3.9 °C 1025.8 hPa OSO 11.9 km/h 20.9 km/h 30.5% 0.0 mm
16:49 13.2 °C -3.6 °C 1025.8 hPa Oeste 9.7 km/h 16.1 km/h 31% 0.0 mm
16:54 13.2 °C -3.6 °C 1025.8 hPa OSO 9.5 km/h 16.7 km/h 31% 0.0 mm
16:59 13.1 °C -3.7 °C 1025.8 hPa Oeste 7.8 km/h 16.1 km/h 31% 0.0 mm
17:04 13.1 °C -3.7 °C 1025.8 hPa Oeste 7.6 km/h 18.5 km/h 30.9% 0.0 mm
17:09 12.9 °C -3.8 °C 1025.8 hPa Oeste 9.7 km/h 19.3 km/h 31% 0.0 mm
17:14 12.9 °C -3.8 °C 1025.8 hPa Oeste 10 km/h 16.1 km/h 31% 0.0 mm
17:19 12.8 °C -3.7 °C 1025.8 hPa Oeste 9.6 km/h 16.7 km/h 31.6% 0.0 mm
17:24 12.8 °C -3.6 °C 1025.9 hPa Oeste 9.5 km/h 18 km/h 31.7% 0.0 mm
17:29 12.8 °C -3.9 °C 1025.9 hPa Oeste 8.5 km/h 19.3 km/h 31.1% 0.0 mm
17:34 12.7 °C -4 °C 1025.9 hPa Oeste 8.4 km/h 16.1 km/h 31% 0.0 mm
17:39 12.6 °C -4.1 °C 1025.9 hPa Oeste 8.6 km/h 12.9 km/h 31% 0.0 mm
17:44 12.5 °C -4 °C 1025.9 hPa ONO 8.7 km/h 15.6 km/h 31.4% 0.0 mm
17:49 12.3 °C -3.9 °C 1025.9 hPa ONO 7.7 km/h 16.1 km/h 32.2% 0.0 mm
17:54 12.1 °C -3.7 °C 1026.1 hPa ONO 7.6 km/h 13.7 km/h 33% 0.0 mm
17:59 11.9 °C -3.9 °C 1026.1 hPa Oeste 8.3 km/h 17.2 km/h 33% 0.0 mm
18:04 11.7 °C -4 °C 1026.1 hPa Oeste 8.4 km/h 17.7 km/h 33% 0.0 mm
18:09 11.6 °C -4.1 °C 1026.1 hPa Oeste 8.7 km/h 12.9 km/h 33.1% 0.0 mm
18:14 11.4 °C -4.2 °C 1026.1 hPa Oeste 8.7 km/h 13 km/h 33.4% 0.0 mm
18:19 11.3 °C -4 °C 1026.1 hPa OSO 7.7 km/h 12.9 km/h 34% 0.0 mm
18:24 11.2 °C -4.1 °C 1026.1 hPa OSO 7.6 km/h 11.3 km/h 34% 0.0 mm
18:29 11.1 °C -4.2 °C 1026.1 hPa SO 6 km/h 11.9 km/h 34% 0.0 mm
18:34 11.2 °C -4.1 °C 1026.1 hPa SSO 5.8 km/h 13 km/h 33.9% 0.0 mm
18:39 11.2 °C -4.1 °C 1026.2 hPa SO 6.8 km/h 13 km/h 33.9% 0.0 mm
18:44 11.1 °C -4.2 °C 1026.2 hPa SO 6.9 km/h 12.9 km/h 34% 0.0 mm
18:49 10.9 °C -4.3 °C 1026.2 hPa SO 7.5 km/h 11.3 km/h 34% 0.0 mm
18:54 10.8 °C -4.5 °C 1026.3 hPa SO 7.6 km/h 11.3 km/h 34% 0.0 mm
18:59 10.7 °C -4.6 °C 1026.3 hPa SO 7 km/h 11.9 km/h 34% 0.0 mm
19:04 10.5 °C -4.7 °C 1026.3 hPa SO 6.9 km/h 11.3 km/h 34% 0.0 mm
19:09 10.4 °C -4.8 °C 1026.3 hPa SSO 6.5 km/h 11.1 km/h 34% 0.0 mm
19:14 10.3 °C -4.9 °C 1026.3 hPa SSO 6.5 km/h 13 km/h 34% 0.0 mm
19:19 10.3 °C -4.9 °C 1026.3 hPa SSO 7.5 km/h 13 km/h 34% 0.0 mm
19:24 10.3 °C -4.9 °C 1026.4 hPa SSO 7.6 km/h 14.8 km/h 34% 0.0 mm
19:29 10.2 °C -5 °C 1026.4 hPa SO 8.3 km/h 14.5 km/h 34% 0.0 mm
19:34 10.2 °C -5 °C 1026.4 hPa SSO 8.4 km/h 13.7 km/h 34% 0.0 mm
19:39 10.1 °C -4.6 °C 1026.6 hPa Sur 8.4 km/h 14.5 km/h 35.2% 0.0 mm
19:44 9.9 °C -4.2 °C 1026.6 hPa SSO 8.4 km/h 13.7 km/h 37% 0.0 mm
19:49 9.7 °C -4.5 °C 1026.6 hPa SO 7.7 km/h 16.7 km/h 36.5% 0.0 mm
19:54 9.7 °C -4.7 °C 1026.7 hPa SO 7.6 km/h 15.6 km/h 36% 0.0 mm
19:59 9.7 °C -4.7 °C 1026.7 hPa SO 9.7 km/h 16.1 km/h 36% 0.0 mm
20:04 9.7 °C -4.6 °C 1026.7 hPa OSO 10 km/h 14.5 km/h 36.1% 0.0 mm
20:09 9.6 °C -4.4 °C 1026.8 hPa OSO 7.9 km/h 20.4 km/h 36.9% 0.0 mm
20:14 9.6 °C -4.4 °C 1026.8 hPa OSO 7.6 km/h 20.9 km/h 37% 0.0 mm
20:19 9.5 °C -4.3 °C 1026.8 hPa SO 9.9 km/h 16.1 km/h 37.7% 0.0 mm
20:24 9.4 °C -4 °C 1026.9 hPa SO 10.3 km/h 15.6 km/h 38.6% 0.0 mm
20:29 9.4 °C -3.6 °C 1026.9 hPa SSO 8.9 km/h 16.7 km/h 39.9% 0.0 mm
20:34 9.3 °C -2.9 °C 1026.9 hPa SSO 8.7 km/h 16.4 km/h 42.3% 0.0 mm
20:39 9.2 °C -2.4 °C 1027.1 hPa SSO 10.1 km/h 16.1 km/h 44% 0.0 mm
20:44 9 °C -2.2 °C 1027.1 hPa SSO 10.3 km/h 16.1 km/h 45.6% 0.0 mm
20:49 8.8 °C -1.9 °C 1027.1 hPa SSO 8.9 km/h 19.8 km/h 46.8% 0.0 mm
20:54 8.8 °C -1.9 °C 1027.1 hPa SSO 8.7 km/h 20.9 km/h 46.9% 0.0 mm
20:59 8.8 °C -2.2 °C 1027.1 hPa SSO 10.1 km/h 16.7 km/h 46% 0.0 mm
21:04 8.8 °C -2.2 °C 1027.1 hPa SSO 10.3 km/h 16.1 km/h 46% 0.0 mm
21:09 8.8 °C -2.5 °C 1027.1 hPa SSO 10 km/h 16.7 km/h 44.9% 0.0 mm
21:14 8.8 °C -3 °C 1027.1 hPa SO 10 km/h 16.7 km/h 43.3% 0.0 mm
21:19 8.9 °C -3.3 °C 1027.1 hPa SO 10.3 km/h 18.5 km/h 42% 0.0 mm
21:24 9 °C -3.2 °C 1027.1 hPa SSO 10.3 km/h 19.3 km/h 42.2% 0.0 mm
21:29 8.8 °C -2.9 °C 1027.1 hPa SSO 10.3 km/h 16.7 km/h 43.3% 0.0 mm
21:34 8.7 °C -2.7 °C 1027.1 hPa Sur 10.3 km/h 16.1 km/h 44.5% 0.0 mm
21:39 8.6 °C -2.6 °C 1027.1 hPa Sur 10 km/h 14.5 km/h 45.2% 0.0 mm
21:44 8.4 °C -2.4 °C 1027.1 hPa Sur 10 km/h 14.8 km/h 46.5% 0.0 mm
21:49 8.2 °C -2.1 °C 1027.1 hPa SSE 7.8 km/h 14.5 km/h 48.4% 0.0 mm
21:54 7.9 °C -1.8 °C 1027.2 hPa SSE 7.6 km/h 15.6 km/h 50.5% 0.0 mm
21:59 7.7 °C -1.6 °C 1027.2 hPa SSE 9.8 km/h 16.1 km/h 51.6% 0.0 mm
22:04 7.6 °C -1.6 °C 1027.2 hPa SSE 10 km/h 16.7 km/h 52.2% 0.0 mm
22:09 7.4 °C -1.6 °C 1027.2 hPa SSE 10 km/h 16.1 km/h 53% 0.0 mm
22:14 7.3 °C -1.7 °C 1027.1 hPa SSE 10 km/h 16.7 km/h 53% 0.0 mm
22:19 7.3 °C -1.7 °C 1027.1 hPa SSE 10 km/h 16.1 km/h 53% 0.0 mm
22:24 7.3 °C -1.9 °C 1027.1 hPa SSE 10 km/h 16.1 km/h 52.3% 0.0 mm
22:29 7.2 °C -2 °C 1027.1 hPa SSE 10.3 km/h 17.2 km/h 52% 0.0 mm
22:34 7.3 °C -2.1 °C 1027.1 hPa SSE 10.3 km/h 19 km/h 51.3% 0.0 mm
22:39 7.3 °C -2.2 °C 1027.2 hPa SSE 13.2 km/h 20.4 km/h 51% 0.0 mm
22:44 7.3 °C -2.3 °C 1027.2 hPa SSE 13.7 km/h 22.2 km/h 50.2% 0.0 mm
22:49 7.5 °C -2.5 °C 1027.2 hPa SSE 14.6 km/h 22.5 km/h 49.1% 0.0 mm
22:54 7.6 °C -2.6 °C 1027.4 hPa SSE 14.8 km/h 20.9 km/h 48.4% 0.0 mm
22:59 7.7 °C -2.6 °C 1027.4 hPa Sur 13.8 km/h 19.3 km/h 48% 0.0 mm
23:04 7.7 °C -2.6 °C 1027.4 hPa Sur 13.7 km/h 24.1 km/h 48% 0.0 mm
23:09 7.7 °C -2.6 °C 1027.6 hPa Sur 12.1 km/h 24.1 km/h 48% 0.0 mm
23:14 7.7 °C -2.6 °C 1027.6 hPa Sur 11.9 km/h 20.9 km/h 48% 0.0 mm
23:19 7.7 °C -2.6 °C 1027.6 hPa Sur 11.9 km/h 19.3 km/h 48% 0.0 mm
23:24 7.7 °C -2.6 °C 1027.7 hPa Sur 11.9 km/h 19.3 km/h 48% 0.0 mm
23:29 7.7 °C -2.6 °C 1027.7 hPa Sur 9.8 km/h 16.1 km/h 48% 0.0 mm
23:34 7.6 °C -2.6 °C 1027.7 hPa Sur 9.5 km/h 14.8 km/h 48.3% 0.0 mm
23:39 7.6 °C -2.5 °C 1027.7 hPa Sur 9.5 km/h 15.6 km/h 49% 0.0 mm
23:44 7.4 °C -2.4 °C 1027.6 hPa Sur 9.5 km/h 16.1 km/h 49.6% 0.0 mm
23:49 7.4 °C -2.3 °C 1027.6 hPa SSE 8.5 km/h 11.3 km/h 50% 0.0 mm
23:54 7.4 °C -2.3 °C 1027.9 hPa SSE 8.4 km/h 9.3 km/h 50% 0.0 mm
23:59 7.4 °C -2.3 °C 1027.9 hPa Sur 6.7 km/h 11.1 km/h 50% 0.0 mm
Murcia-Puente Tocinos, Espa?a
Compliments of Weather Underground - 3.25 mb

La estación de MeteoMurcia.com, publica sus datos en los siguientes proyectos:

Weather Underground PWS IMURCIAP2 Meteoclimatic www.awekas.at

W3Counter
Web Analytics